Terminal Aerodrome Forecast
Issued by NWS

Home | Current Version | Previous Version | Text Only | Print | Product List | Glossary Off
Versions: 1 2 3 4 5 6 7 8 9 10 11 12 13 14 15

000
FTUS43 KGRB 211100
TAFMTW
TAF
KMTW 211137Z 2112/2212 17005KT 6SM BR SCT020 OVC035
      TEMPO 2112/2113 BKN020
     FM211300 17009KT 3SM -FZDZ BR OVC012
     FM211600 17013KT 5SM -DZ BR OVC012
     FM212100 15012KT 6SM -SN BR OVC015
     FM220700 16010KT 4SM -FZDZSN BR SCT006 OVC012=

USA.gov is the U.S. government's official web portal to all federal, state and local government web resources and services.